sensor_id;sensor_type;location;lat;lon;timestamp;P1;durP1;ratioP1;P2;durP2;ratioP2
13435;SDS011;6790;49.520;8.504;2022-08-24T00:01:16;5.70;;;3.83;;
13435;SDS011;6790;49.520;8.504;2022-08-24T00:03:43;7.13;;;3.80;;
13435;SDS011;6790;49.520;8.504;2022-08-24T00:06:12;7.40;;;4.03;;
13435;SDS011;6790;49.520;8.504;2022-08-24T00:08:45;4.37;;;3.97;;
13435;SDS011;6790;49.520;8.504;2022-08-24T00:11:16;5.20;;;4.10;;
13435;SDS011;6790;49.520;8.504;2022-08-24T00:13:42;5.03;;;3.67;;
13435;SDS011;6790;49.520;8.504;2022-08-24T00:16:09;5.43;;;3.97;;
13435;SDS011;6790;49.520;8.504;2022-08-24T00:18:35;5.70;;;3.77;;
13435;SDS011;6790;49.520;8.504;2022-08-24T00:21:02;5.70;;;3.97;;
13435;SDS011;6790;49.520;8.504;2022-08-24T00:23:29;5.73;;;4.20;;
13435;SDS011;6790;49.520;8.504;2022-08-24T00:25:56;6.80;;;4.40;;
13435;SDS011;6790;49.520;8.504;2022-08-24T00:28:22;4.90;;;4.00;;
13435;SDS011;6790;49.520;8.504;2022-08-24T00:30:48;4.70;;;3.93;;
13435;SDS011;6790;49.520;8.504;2022-08-24T00:33:14;6.77;;;3.80;;
13435;SDS011;6790;49.520;8.504;2022-08-24T00:35:40;7.50;;;3.73;;
13435;SDS011;6790;49.520;8.504;2022-08-24T00:38:06;5.80;;;3.43;;
13435;SDS011;6790;49.520;8.504;2022-08-24T00:40:33;6.63;;;3.90;;
13435;SDS011;6790;49.520;8.504;2022-08-24T00:43:03;5.47;;;3.70;;
13435;SDS011;6790;49.520;8.504;2022-08-24T00:46:19;4.70;;;3.77;;
13435;SDS011;6790;49.520;8.504;2022-08-24T00:48:32;4.53;;;3.60;;
13435;SDS011;6790;49.520;8.504;2022-08-24T00:51:11;4.33;;;3.40;;
13435;SDS011;6790;49.520;8.504;2022-08-24T00:53:55;5.57;;;3.57;;
13435;SDS011;6790;49.520;8.504;2022-08-24T00:56:32;6.33;;;3.70;;
13435;SDS011;6790;49.520;8.504;2022-08-24T00:59:07;7.43;;;3.63;;
13435;SDS011;6790;49.520;8.504;2022-08-24T01:01:39;4.60;;;3.53;;
13435;SDS011;6790;49.520;8.504;2022-08-24T01:04:08;3.20;;;2.83;;
13435;SDS011;6790;49.520;8.504;2022-08-24T01:06:53;4.10;;;3.53;;
13435;SDS011;6790;49.520;8.504;2022-08-24T01:09:21;5.53;;;3.57;;
13435;SDS011;6790;49.520;8.504;2022-08-24T01:11:46;7.27;;;3.73;;
13435;SDS011;6790;49.520;8.504;2022-08-24T01:14:13;4.17;;;3.60;;
13435;SDS011;6790;49.520;8.504;2022-08-24T01:16:41;3.87;;;3.37;;
13435;SDS011;6790;49.520;8.504;2022-08-24T01:19:40;3.50;;;3.20;;
13435;SDS011;6790;49.520;8.504;2022-08-24T01:22:20;4.07;;;3.60;;
13435;SDS011;6790;49.520;8.504;2022-08-24T01:24:57;4.73;;;3.40;;
13435;SDS011;6790;49.520;8.504;2022-08-24T01:27:24;4.13;;;3.57;;
13435;SDS011;6790;49.520;8.504;2022-08-24T01:29:50;4.97;;;3.80;;
13435;SDS011;6790;49.520;8.504;2022-08-24T01:32:18;3.77;;;3.40;;
13435;SDS011;6790;49.520;8.504;2022-08-24T01:34:47;5.93;;;3.53;;
13435;SDS011;6790;49.520;8.504;2022-08-24T01:37:13;4.03;;;3.50;;
13435;SDS011;6790;49.520;8.504;2022-08-24T01:39:43;8.23;;;3.77;;
13435;SDS011;6790;49.520;8.504;2022-08-24T01:42:12;5.27;;;3.63;;
13435;SDS011;6790;49.520;8.504;2022-08-24T01:44:38;5.57;;;3.63;;
13435;SDS011;6790;49.520;8.504;2022-08-24T01:47:07;4.17;;;3.60;;
13435;SDS011;6790;49.520;8.504;2022-08-24T01:49:37;5.13;;;4.00;;
13435;SDS011;6790;49.520;8.504;2022-08-24T01:52:07;5.13;;;3.73;;
13435;SDS011;6790;49.520;8.504;2022-08-24T01:54:36;6.63;;;4.00;;
13435;SDS011;6790;49.520;8.504;2022-08-24T01:57:03;4.10;;;3.70;;
13435;SDS011;6790;49.520;8.504;2022-08-24T01:59:29;4.90;;;4.07;;
13435;SDS011;6790;49.520;8.504;2022-08-24T02:02:00;6.80;;;4.00;;
13435;SDS011;6790;49.520;8.504;2022-08-24T02:04:33;4.20;;;3.33;;
13435;SDS011;6790;49.520;8.504;2022-08-24T02:06:59;4.53;;;4.00;;
13435;SDS011;6790;49.520;8.504;2022-08-24T02:09:25;8.63;;;3.70;;
13435;SDS011;6790;49.520;8.504;2022-08-24T02:11:51;4.83;;;3.53;;
13435;SDS011;6790;49.520;8.504;2022-08-24T02:14:17;4.93;;;4.07;;
13435;SDS011;6790;49.520;8.504;2022-08-24T02:16:44;7.17;;;4.03;;
13435;SDS011;6790;49.520;8.504;2022-08-24T02:19:10;6.50;;;4.17;;
13435;SDS011;6790;49.520;8.504;2022-08-24T02:21:36;4.73;;;3.93;;
13435;SDS011;6790;49.520;8.504;2022-08-24T02:24:03;9.57;;;4.70;;
13435;SDS011;6790;49.520;8.504;2022-08-24T02:26:29;5.60;;;4.13;;
13435;SDS011;6790;49.520;8.504;2022-08-24T02:28:55;6.87;;;3.87;;
13435;SDS011;6790;49.520;8.504;2022-08-24T02:31:20;5.33;;;4.20;;
13435;SDS011;6790;49.520;8.504;2022-08-24T02:33:46;5.00;;;4.40;;
13435;SDS011;6790;49.520;8.504;2022-08-24T02:36:12;4.00;;;3.70;;
13435;SDS011;6790;49.520;8.504;2022-08-24T02:38:38;5.10;;;4.10;;
13435;SDS011;6790;49.520;8.504;2022-08-24T02:41:04;4.57;;;4.10;;
13435;SDS011;6790;49.520;8.504;2022-08-24T02:43:30;5.43;;;4.20;;
13435;SDS011;6790;49.520;8.504;2022-08-24T02:45:56;6.40;;;4.43;;
13435;SDS011;6790;49.520;8.504;2022-08-24T02:48:22;6.43;;;4.17;;
13435;SDS011;6790;49.520;8.504;2022-08-24T02:50:49;5.53;;;4.47;;
13435;SDS011;6790;49.520;8.504;2022-08-24T02:53:17;6.40;;;4.47;;
13435;SDS011;6790;49.520;8.504;2022-08-24T02:55:45;4.23;;;3.80;;
13435;SDS011;6790;49.520;8.504;2022-08-24T02:58:12;7.20;;;4.50;;
13435;SDS011;6790;49.520;8.504;2022-08-24T03:00:40;4.37;;;3.97;;
13435;SDS011;6790;49.520;8.504;2022-08-24T03:03:08;5.53;;;4.40;;
13435;SDS011;6790;49.520;8.504;2022-08-24T03:05:35;6.53;;;4.00;;
13435;SDS011;6790;49.520;8.504;2022-08-24T03:08:02;8.83;;;4.50;;
13435;SDS011;6790;49.520;8.504;2022-08-24T03:10:28;5.57;;;4.70;;
13435;SDS011;6790;49.520;8.504;2022-08-24T03:12:54;4.83;;;3.77;;
13435;SDS011;6790;49.520;8.504;2022-08-24T03:15:20;8.53;;;4.60;;
13435;SDS011;6790;49.520;8.504;2022-08-24T03:17:46;5.43;;;4.40;;
13435;SDS011;6790;49.520;8.504;2022-08-24T03:20:14;5.13;;;4.70;;
13435;SDS011;6790;49.520;8.504;2022-08-24T03:22:45;4.93;;;4.43;;
13435;SDS011;6790;49.520;8.504;2022-08-24T03:25:11;5.80;;;4.53;;
13435;SDS011;6790;49.520;8.504;2022-08-24T03:27:39;5.53;;;4.50;;
13435;SDS011;6790;49.520;8.504;2022-08-24T03:30:06;5.70;;;4.40;;
13435;SDS011;6790;49.520;8.504;2022-08-24T03:32:37;6.20;;;4.33;;
13435;SDS011;6790;49.520;8.504;2022-08-24T03:35:03;6.60;;;4.93;;
13435;SDS011;6790;49.520;8.504;2022-08-24T03:37:30;6.77;;;4.37;;
13435;SDS011;6790;49.520;8.504;2022-08-24T03:39:56;6.70;;;4.93;;
13435;SDS011;6790;49.520;8.504;2022-08-24T03:42:23;6.53;;;4.77;;
13435;SDS011;6790;49.520;8.504;2022-08-24T03:44:48;6.33;;;4.73;;
13435;SDS011;6790;49.520;8.504;2022-08-24T03:47:14;5.13;;;4.63;;
13435;SDS011;6790;49.520;8.504;2022-08-24T03:49:40;5.60;;;5.07;;
13435;SDS011;6790;49.520;8.504;2022-08-24T03:52:05;9.03;;;4.90;;
13435;SDS011;6790;49.520;8.504;2022-08-24T03:54:31;6.07;;;5.03;;
13435;SDS011;6790;49.520;8.504;2022-08-24T03:56:57;5.80;;;4.70;;
13435;SDS011;6790;49.520;8.504;2022-08-24T03:59:23;5.80;;;5.00;;
13435;SDS011;6790;49.520;8.504;2022-08-24T04:01:50;6.27;;;5.07;;
13435;SDS011;6790;49.520;8.504;2022-08-24T04:04:15;8.50;;;5.90;;
13435;SDS011;6790;49.520;8.504;2022-08-24T04:06:41;9.10;;;7.40;;
13435;SDS011;6790;49.520;8.504;2022-08-24T04:09:11;8.87;;;5.73;;
13435;SDS011;6790;49.520;8.504;2022-08-24T04:11:37;7.93;;;5.60;;
13435;SDS011;6790;49.520;8.504;2022-08-24T04:14:03;5.90;;;4.80;;
13435;SDS011;6790;49.520;8.504;2022-08-24T04:16:29;8.57;;;4.97;;
13435;SDS011;6790;49.520;8.504;2022-08-24T04:18:57;7.43;;;5.20;;
13435;SDS011;6790;49.520;8.504;2022-08-24T04:21:28;7.60;;;5.33;;
13435;SDS011;6790;49.520;8.504;2022-08-24T04:23:57;7.13;;;5.03;;
13435;SDS011;6790;49.520;8.504;2022-08-24T04:26:24;7.57;;;5.07;;
13435;SDS011;6790;49.520;8.504;2022-08-24T04:28:52;7.03;;;5.30;;
13435;SDS011;6790;49.520;8.504;2022-08-24T04:31:19;7.43;;;5.33;;
13435;SDS011;6790;49.520;8.504;2022-08-24T04:33:46;6.80;;;5.30;;
13435;SDS011;6790;49.520;8.504;2022-08-24T04:36:16;5.60;;;4.70;;
13435;SDS011;6790;49.520;8.504;2022-08-24T04:38:45;7.73;;;5.17;;
13435;SDS011;6790;49.520;8.504;2022-08-24T04:41:13;6.73;;;5.23;;
13435;SDS011;6790;49.520;8.504;2022-08-24T04:43:40;9.67;;;5.63;;
13435;SDS011;6790;49.520;8.504;2022-08-24T04:46:10;9.20;;;5.37;;
13435;SDS011;6790;49.520;8.504;2022-08-24T04:48:39;6.87;;;5.50;;
13435;SDS011;6790;49.520;8.504;2022-08-24T04:51:07;7.57;;;5.50;;
13435;SDS011;6790;49.520;8.504;2022-08-24T04:53:34;6.63;;;4.87;;
13435;SDS011;6790;49.520;8.504;2022-08-24T04:56:00;8.43;;;4.83;;
13435;SDS011;6790;49.520;8.504;2022-08-24T04:58:27;5.40;;;4.90;;
13435;SDS011;6790;49.520;8.504;2022-08-24T05:00:54;10.23;;;5.63;;
13435;SDS011;6790;49.520;8.504;2022-08-24T05:03:20;6.37;;;5.03;;
13435;SDS011;6790;49.520;8.504;2022-08-24T05:05:47;7.90;;;5.27;;
13435;SDS011;6790;49.520;8.504;2022-08-24T05:08:15;5.93;;;5.10;;
13435;SDS011;6790;49.520;8.504;2022-08-24T05:10:44;5.73;;;5.13;;
13435;SDS011;6790;49.520;8.504;2022-08-24T05:13:12;5.67;;;5.10;;
13435;SDS011;6790;49.520;8.504;2022-08-24T05:15:43;8.27;;;5.13;;
13435;SDS011;6790;49.520;8.504;2022-08-24T05:18:12;6.23;;;4.90;;
13435;SDS011;6790;49.520;8.504;2022-08-24T05:20:43;7.47;;;5.23;;
13435;SDS011;6790;49.520;8.504;2022-08-24T05:23:11;6.07;;;5.33;;
13435;SDS011;6790;49.520;8.504;2022-08-24T05:25:37;6.83;;;5.17;;
13435;SDS011;6790;49.520;8.504;2022-08-24T05:28:04;6.17;;;5.40;;
13435;SDS011;6790;49.520;8.504;2022-08-24T05:30:30;8.07;;;5.47;;
13435;SDS011;6790;49.520;8.504;2022-08-24T05:32:56;6.47;;;5.67;;
13435;SDS011;6790;49.520;8.504;2022-08-24T05:35:22;5.73;;;5.23;;
13435;SDS011;6790;49.520;8.504;2022-08-24T05:37:47;8.37;;;5.60;;
13435;SDS011;6790;49.520;8.504;2022-08-24T05:40:14;7.13;;;4.90;;
13435;SDS011;6790;49.520;8.504;2022-08-24T05:42:43;6.97;;;5.37;;
13435;SDS011;6790;49.520;8.504;2022-08-24T05:45:09;5.70;;;5.10;;
13435;SDS011;6790;49.520;8.504;2022-08-24T05:47:36;8.00;;;5.60;;
13435;SDS011;6790;49.520;8.504;2022-08-24T05:50:02;5.53;;;4.93;;
13435;SDS011;6790;49.520;8.504;2022-08-24T05:52:30;6.67;;;4.60;;
13435;SDS011;6790;49.520;8.504;2022-08-24T05:54:56;7.10;;;4.67;;
13435;SDS011;6790;49.520;8.504;2022-08-24T05:57:24;6.60;;;4.90;;
13435;SDS011;6790;49.520;8.504;2022-08-24T05:59:55;5.63;;;5.03;;
13435;SDS011;6790;49.520;8.504;2022-08-24T06:02:21;6.63;;;5.20;;
13435;SDS011;6790;49.520;8.504;2022-08-24T06:04:47;6.73;;;5.03;;
13435;SDS011;6790;49.520;8.504;2022-08-24T06:07:13;7.30;;;4.80;;
13435;SDS011;6790;49.520;8.504;2022-08-24T06:09:40;5.90;;;4.57;;
13435;SDS011;6790;49.520;8.504;2022-08-24T06:12:07;9.50;;;4.70;;
13435;SDS011;6790;49.520;8.504;2022-08-24T06:14:34;4.83;;;4.20;;
13435;SDS011;6790;49.520;8.504;2022-08-24T06:17:02;4.73;;;4.23;;
13435;SDS011;6790;49.520;8.504;2022-08-24T06:19:31;6.47;;;4.60;;
13435;SDS011;6790;49.520;8.504;2022-08-24T06:21:57;5.63;;;4.43;;
13435;SDS011;6790;49.520;8.504;2022-08-24T06:24:24;5.07;;;4.20;;
13435;SDS011;6790;49.520;8.504;2022-08-24T06:27:10;5.37;;;4.17;;
13435;SDS011;6790;49.520;8.504;2022-08-24T06:29:45;7.23;;;4.60;;
13435;SDS011;6790;49.520;8.504;2022-08-24T06:32:35;6.93;;;4.53;;
13435;SDS011;6790;49.520;8.504;2022-08-24T06:35:02;8.00;;;4.30;;
13435;SDS011;6790;49.520;8.504;2022-08-24T06:37:28;5.83;;;4.07;;
13435;SDS011;6790;49.520;8.504;2022-08-24T06:39:55;6.03;;;3.80;;
13435;SDS011;6790;49.520;8.504;2022-08-24T06:42:21;4.80;;;4.23;;
13435;SDS011;6790;49.520;8.504;2022-08-24T06:44:53;6.57;;;4.17;;
13435;SDS011;6790;49.520;8.504;2022-08-24T06:47:19;6.70;;;4.50;;
13435;SDS011;6790;49.520;8.504;2022-08-24T06:49:46;6.93;;;4.37;;
13435;SDS011;6790;49.520;8.504;2022-08-24T06:52:11;6.70;;;4.00;;
13435;SDS011;6790;49.520;8.504;2022-08-24T06:54:37;6.30;;;4.07;;
13435;SDS011;6790;49.520;8.504;2022-08-24T06:57:04;4.60;;;3.90;;
13435;SDS011;6790;49.520;8.504;2022-08-24T06:59:31;4.45;;;3.70;;
13435;SDS011;6790;49.520;8.504;2022-08-24T07:01:57;6.22;;;4.28;;
13435;SDS011;6790;49.520;8.504;2022-08-24T07:04:24;5.07;;;3.75;;
13435;SDS011;6790;49.520;8.504;2022-08-24T07:06:51;6.25;;;4.18;;
13435;SDS011;6790;49.520;8.504;2022-08-24T07:09:19;4.72;;;3.80;;
13435;SDS011;6790;49.520;8.504;2022-08-24T07:11:49;4.38;;;3.75;;
13435;SDS011;6790;49.520;8.504;2022-08-24T07:14:15;4.00;;;3.67;;
13435;SDS011;6790;49.520;8.504;2022-08-24T07:16:43;4.75;;;3.60;;
13435;SDS011;6790;49.520;8.504;2022-08-24T07:19:09;5.72;;;3.72;;
13435;SDS011;6790;49.520;8.504;2022-08-24T07:21:34;5.30;;;3.85;;
13435;SDS011;6790;49.520;8.504;2022-08-24T07:24:00;5.13;;;3.33;;
13435;SDS011;6790;49.520;8.504;2022-08-24T07:26:27;4.03;;;3.50;;
13435;SDS011;6790;49.520;8.504;2022-08-24T07:28:56;5.47;;;3.65;;
13435;SDS011;6790;49.520;8.504;2022-08-24T07:31:35;4.88;;;3.47;;
13435;SDS011;6790;49.520;8.504;2022-08-24T07:34:04;7.40;;;3.40;;
13435;SDS011;6790;49.520;8.504;2022-08-24T07:36:33;3.72;;;3.35;;
13435;SDS011;6790;49.520;8.504;2022-08-24T07:39:00;4.70;;;3.70;;
13435;SDS011;6790;49.520;8.504;2022-08-24T07:41:26;5.78;;;3.45;;
13435;SDS011;6790;49.520;8.504;2022-08-24T07:43:54;4.28;;;3.70;;
13435;SDS011;6790;49.520;8.504;2022-08-24T07:46:20;5.57;;;3.88;;
13435;SDS011;6790;49.520;8.504;2022-08-24T07:48:46;4.28;;;3.40;;
13435;SDS011;6790;49.520;8.504;2022-08-24T07:51:13;4.82;;;3.95;;
13435;SDS011;6790;49.520;8.504;2022-08-24T07:53:41;5.95;;;3.75;;
13435;SDS011;6790;49.520;8.504;2022-08-24T07:56:07;7.28;;;3.83;;
13435;SDS011;6790;49.520;8.504;2022-08-24T07:58:34;6.40;;;4.07;;
13435;SDS011;6790;49.520;8.504;2022-08-24T08:01:01;5.70;;;4.03;;
13435;SDS011;6790;49.520;8.504;2022-08-24T08:03:29;4.85;;;3.92;;
13435;SDS011;6790;49.520;8.504;2022-08-24T08:05:58;5.30;;;4.07;;
13435;SDS011;6790;49.520;8.504;2022-08-24T08:08:28;5.70;;;4.30;;
13435;SDS011;6790;49.520;8.504;2022-08-24T08:10:56;5.65;;;3.42;;
13435;SDS011;6790;49.520;8.504;2022-08-24T08:13:22;8.57;;;3.97;;
13435;SDS011;6790;49.520;8.504;2022-08-24T08:15:48;6.25;;;4.38;;
13435;SDS011;6790;49.520;8.504;2022-08-24T08:18:14;6.20;;;3.85;;
13435;SDS011;6790;49.520;8.504;2022-08-24T08:20:43;6.85;;;4.00;;
13435;SDS011;6790;49.520;8.504;2022-08-24T08:23:09;5.38;;;4.15;;
13435;SDS011;6790;49.520;8.504;2022-08-24T08:25:54;4.22;;;3.38;;
13435;SDS011;6790;49.520;8.504;2022-08-24T08:28:22;6.32;;;4.15;;
13435;SDS011;6790;49.520;8.504;2022-08-24T08:30:49;7.90;;;3.80;;
13435;SDS011;6790;49.520;8.504;2022-08-24T08:33:16;4.00;;;3.55;;
13435;SDS011;6790;49.520;8.504;2022-08-24T08:35:42;6.32;;;3.33;;
13435;SDS011;6790;49.520;8.504;2022-08-24T08:38:08;4.70;;;3.47;;
13435;SDS011;6790;49.520;8.504;2022-08-24T08:46:08;6.43;;;3.75;;
13435;SDS011;6790;49.520;8.504;2022-08-24T09:08:32;4.03;;;3.40;;
13435;SDS011;6790;49.520;8.504;2022-08-24T09:11:51;3.53;;;3.08;;
13435;SDS011;6790;49.520;8.504;2022-08-24T09:23:05;5.00;;;3.15;;
13435;SDS011;6790;49.520;8.504;2022-08-24T09:28:41;6.32;;;3.30;;
13435;SDS011;6790;49.520;8.504;2022-08-24T09:33:58;8.15;;;2.90;;
13435;SDS011;6790;49.520;8.504;2022-08-24T09:45:24;4.03;;;3.00;;
13435;SDS011;6790;49.520;8.504;2022-08-24T09:57:03;5.70;;;3.53;;
13435;SDS011;6790;49.520;8.504;2022-08-24T10:02:48;3.72;;;2.95;;
13435;SDS011;6790;49.520;8.504;2022-08-24T10:12:03;3.83;;;3.13;;
13435;SDS011;6790;49.520;8.504;2022-08-24T10:14:52;3.75;;;2.88;;
13435;SDS011;6790;49.520;8.504;2022-08-24T10:20:19;5.15;;;2.80;;
13435;SDS011;6790;49.520;8.504;2022-08-24T10:28:50;4.95;;;3.10;;
13435;SDS011;6790;49.520;8.504;2022-08-24T10:35:13;3.28;;;2.85;;
13435;SDS011;6790;49.520;8.504;2022-08-24T10:41:01;3.20;;;2.80;;
13435;SDS011;6790;49.520;8.504;2022-08-24T10:43:47;3.65;;;3.05;;
13435;SDS011;6790;49.520;8.504;2022-08-24T10:46:58;3.63;;;2.97;;
13435;SDS011;6790;49.520;8.504;2022-08-24T10:55:22;3.92;;;2.78;;
13435;SDS011;6790;49.520;8.504;2022-08-24T10:57:57;3.42;;;2.88;;
13435;SDS011;6790;49.520;8.504;2022-08-24T11:00:34;3.63;;;3.33;;
13435;SDS011;6790;49.520;8.504;2022-08-24T11:03:11;4.35;;;2.95;;
13435;SDS011;6790;49.520;8.504;2022-08-24T11:05:42;3.78;;;3.35;;
13435;SDS011;6790;49.520;8.504;2022-08-24T11:08:29;3.65;;;3.13;;
13435;SDS011;6790;49.520;8.504;2022-08-24T11:11:05;4.28;;;3.25;;
13435;SDS011;6790;49.520;8.504;2022-08-24T11:13:36;3.33;;;2.67;;
13435;SDS011;6790;49.520;8.504;2022-08-24T11:16:32;6.40;;;2.90;;
13435;SDS011;6790;49.520;8.504;2022-08-24T11:19:06;3.67;;;3.00;;
13435;SDS011;6790;49.520;8.504;2022-08-24T11:21:56;4.25;;;3.13;;
13435;SDS011;6790;49.520;8.504;2022-08-24T11:24:37;3.90;;;2.47;;
13435;SDS011;6790;49.520;8.504;2022-08-24T11:35:15;3.05;;;2.75;;
13435;SDS011;6790;49.520;8.504;2022-08-24T11:37:51;6.50;;;2.65;;
13435;SDS011;6790;49.520;8.504;2022-08-24T11:40:32;7.45;;;2.90;;
13435;SDS011;6790;49.520;8.504;2022-08-24T11:46:33;6.95;;;2.40;;
13435;SDS011;6790;49.520;8.504;2022-08-24T11:49:32;9.13;;;3.05;;
13435;SDS011;6790;49.520;8.504;2022-08-24T11:52:33;2.92;;;2.60;;
13435;SDS011;6790;49.520;8.504;2022-08-24T11:58:44;14.77;;;3.20;;
13435;SDS011;6790;49.520;8.504;2022-08-24T12:01:28;8.73;;;2.72;;
13435;SDS011;6790;49.520;8.504;2022-08-24T12:17:46;3.60;;;2.63;;
13435;SDS011;6790;49.520;8.504;2022-08-24T12:22:58;3.10;;;2.30;;
13435;SDS011;6790;49.520;8.504;2022-08-24T12:25:30;3.20;;;2.55;;
13435;SDS011;6790;49.520;8.504;2022-08-24T12:28:19;2.80;;;2.53;;
13435;SDS011;6790;49.520;8.504;2022-08-24T12:30:50;3.53;;;2.67;;
13435;SDS011;6790;49.520;8.504;2022-08-24T12:33:19;3.00;;;2.70;;
13435;SDS011;6790;49.520;8.504;2022-08-24T12:35:54;4.07;;;2.33;;
13435;SDS011;6790;49.520;8.504;2022-08-24T12:38:37;2.78;;;2.58;;
13435;SDS011;6790;49.520;8.504;2022-08-24T12:41:18;2.70;;;2.50;;
13435;SDS011;6790;49.520;8.504;2022-08-24T12:43:58;3.00;;;2.60;;
13435;SDS011;6790;49.520;8.504;2022-08-24T12:46:37;3.85;;;2.58;;
13435;SDS011;6790;49.520;8.504;2022-08-24T12:49:05;3.63;;;2.60;;
13435;SDS011;6790;49.520;8.504;2022-08-24T13:00:05;3.35;;;2.67;;
13435;SDS011;6790;49.520;8.504;2022-08-24T13:02:41;3.13;;;2.70;;
13435;SDS011;6790;49.520;8.504;2022-08-24T13:05:12;5.05;;;2.60;;
13435;SDS011;6790;49.520;8.504;2022-08-24T13:07:43;2.58;;;2.30;;
13435;SDS011;6790;49.520;8.504;2022-08-24T13:12:58;4.63;;;2.85;;
13435;SDS011;6790;49.520;8.504;2022-08-24T13:47:30;4.78;;;2.30;;
13435;SDS011;6790;49.520;8.504;2022-08-24T13:59:10;5.32;;;2.40;;
13435;SDS011;6790;49.520;8.504;2022-08-24T14:02:39;4.65;;;2.20;;
13435;SDS011;6790;49.520;8.504;2022-08-24T14:05:43;3.80;;;1.85;;
13435;SDS011;6790;49.520;8.504;2022-08-24T14:13:42;3.03;;;2.50;;
13435;SDS011;6790;49.520;8.504;2022-08-24T14:16:44;4.35;;;2.03;;
13435;SDS011;6790;49.520;8.504;2022-08-24T14:23:07;5.43;;;2.35;;
13435;SDS011;6790;49.520;8.504;2022-08-24T14:25:34;2.42;;;2.20;;
13435;SDS011;6790;49.520;8.504;2022-08-24T14:31:33;3.10;;;2.22;;
13435;SDS011;6790;49.520;8.504;2022-08-24T14:34:06;2.30;;;2.10;;
13435;SDS011;6790;49.520;8.504;2022-08-24T14:39:42;2.45;;;2.20;;
13435;SDS011;6790;49.520;8.504;2022-08-24T14:42:39;3.30;;;2.28;;
13435;SDS011;6790;49.520;8.504;2022-08-24T14:48:36;3.97;;;2.22;;
13435;SDS011;6790;49.520;8.504;2022-08-24T15:02:44;2.42;;;2.15;;
13435;SDS011;6790;49.520;8.504;2022-08-24T15:10:34;2.72;;;2.33;;
13435;SDS011;6790;49.520;8.504;2022-08-24T15:13:12;2.63;;;2.17;;
13435;SDS011;6790;49.520;8.504;2022-08-24T15:15:53;2.40;;;2.20;;
13435;SDS011;6790;49.520;8.504;2022-08-24T15:24:00;6.80;;;2.53;;
13435;SDS011;6790;49.520;8.504;2022-08-24T15:29:58;5.93;;;2.35;;
13435;SDS011;6790;49.520;8.504;2022-08-24T15:32:46;4.70;;;2.40;;
13435;SDS011;6790;49.520;8.504;2022-08-24T15:35:21;3.33;;;2.42;;
13435;SDS011;6790;49.520;8.504;2022-08-24T15:37:52;2.50;;;2.28;;
13435;SDS011;6790;49.520;8.504;2022-08-24T15:40:24;2.40;;;2.20;;
13435;SDS011;6790;49.520;8.504;2022-08-24T15:42:57;6.03;;;4.40;;
13435;SDS011;6790;49.520;8.504;2022-08-24T15:45:28;4.20;;;2.78;;
13435;SDS011;6790;49.520;8.504;2022-08-24T15:47:56;2.35;;;2.15;;
13435;SDS011;6790;49.520;8.504;2022-08-24T15:50:25;4.20;;;2.17;;
13435;SDS011;6790;49.520;8.504;2022-08-24T15:52:58;3.13;;;2.30;;
13435;SDS011;6790;49.520;8.504;2022-08-24T15:55:35;2.65;;;2.40;;
13435;SDS011;6790;49.520;8.504;2022-08-24T15:58:40;2.55;;;2.30;;
13435;SDS011;6790;49.520;8.504;2022-08-24T16:04:04;4.43;;;2.30;;
13435;SDS011;6790;49.520;8.504;2022-08-24T16:06:39;5.95;;;2.20;;
13435;SDS011;6790;49.520;8.504;2022-08-24T16:12:02;4.35;;;2.17;;
13435;SDS011;6790;49.520;8.504;2022-08-24T16:14:41;2.53;;;2.20;;
13435;SDS011;6790;49.520;8.504;2022-08-24T16:19:52;4.10;;;2.30;;
13435;SDS011;6790;49.520;8.504;2022-08-24T16:22:32;2.45;;;2.25;;
13435;SDS011;6790;49.520;8.504;2022-08-24T16:25:45;2.45;;;2.00;;
13435;SDS011;6790;49.520;8.504;2022-08-24T16:30:53;3.22;;;2.10;;
13435;SDS011;6790;49.520;8.504;2022-08-24T16:35:54;4.93;;;2.20;;
13435;SDS011;6790;49.520;8.504;2022-08-24T16:38:24;2.03;;;1.90;;
13435;SDS011;6790;49.520;8.504;2022-08-24T16:41:01;3.97;;;2.10;;
13435;SDS011;6790;49.520;8.504;2022-08-24T16:43:32;2.80;;;2.15;;
13435;SDS011;6790;49.520;8.504;2022-08-24T16:46:00;2.97;;;2.00;;
13435;SDS011;6790;49.520;8.504;2022-08-24T16:48:29;3.65;;;1.88;;
13435;SDS011;6790;49.520;8.504;2022-08-24T16:50:55;3.25;;;2.47;;
13435;SDS011;6790;49.520;8.504;2022-08-24T16:53:21;2.10;;;1.90;;
13435;SDS011;6790;49.520;8.504;2022-08-24T16:55:48;3.47;;;2.63;;
13435;SDS011;6790;49.520;8.504;2022-08-24T16:58:14;2.10;;;1.90;;
13435;SDS011;6790;49.520;8.504;2022-08-24T17:00:41;2.70;;;2.00;;
13435;SDS011;6790;49.520;8.504;2022-08-24T17:03:07;2.58;;;1.75;;
13435;SDS011;6790;49.520;8.504;2022-08-24T17:05:33;2.55;;;1.98;;
13435;SDS011;6790;49.520;8.504;2022-08-24T17:07:59;3.08;;;1.98;;
13435;SDS011;6790;49.520;8.504;2022-08-24T17:10:26;2.70;;;2.10;;
13435;SDS011;6790;49.520;8.504;2022-08-24T17:12:52;3.67;;;3.10;;
13435;SDS011;6790;49.520;8.504;2022-08-24T17:15:18;3.03;;;2.40;;
13435;SDS011;6790;49.520;8.504;2022-08-24T17:17:51;3.10;;;2.53;;
13435;SDS011;6790;49.520;8.504;2022-08-24T17:20:28;6.53;;;2.50;;
13435;SDS011;6790;49.520;8.504;2022-08-24T17:22:56;2.60;;;2.38;;
13435;SDS011;6790;49.520;8.504;2022-08-24T17:25:23;7.95;;;3.20;;
13435;SDS011;6790;49.520;8.504;2022-08-24T17:27:51;4.57;;;3.85;;
13435;SDS011;6790;49.520;8.504;2022-08-24T17:30:19;6.55;;;2.90;;
13435;SDS011;6790;49.520;8.504;2022-08-24T17:32:47;3.45;;;2.92;;
13435;SDS011;6790;49.520;8.504;2022-08-24T17:35:15;2.40;;;2.20;;
13435;SDS011;6790;49.520;8.504;2022-08-24T17:37:42;2.10;;;1.90;;
13435;SDS011;6790;49.520;8.504;2022-08-24T17:40:11;2.10;;;1.85;;
13435;SDS011;6790;49.520;8.504;2022-08-24T17:42:41;1.75;;;1.63;;
13435;SDS011;6790;49.520;8.504;2022-08-24T17:45:06;4.65;;;3.30;;
13435;SDS011;6790;49.520;8.504;2022-08-24T17:47:33;5.15;;;3.63;;
13435;SDS011;6790;49.520;8.504;2022-08-24T17:49:59;5.60;;;4.18;;
13435;SDS011;6790;49.520;8.504;2022-08-24T17:52:25;3.47;;;3.17;;
13435;SDS011;6790;49.520;8.504;2022-08-24T17:54:53;2.30;;;2.00;;
13435;SDS011;6790;49.520;8.504;2022-08-24T17:57:18;2.92;;;2.10;;
13435;SDS011;6790;49.520;8.504;2022-08-24T17:59:50;4.38;;;2.10;;
13435;SDS011;6790;49.520;8.504;2022-08-24T18:02:16;2.55;;;2.10;;
13435;SDS011;6790;49.520;8.504;2022-08-24T18:04:43;5.13;;;2.10;;
13435;SDS011;6790;49.520;8.504;2022-08-24T18:07:13;2.17;;;1.98;;
13435;SDS011;6790;49.520;8.504;2022-08-24T18:09:44;2.53;;;2.30;;
13435;SDS011;6790;49.520;8.504;2022-08-24T18:12:16;1.98;;;1.88;;
13435;SDS011;6790;49.520;8.504;2022-08-24T18:14:45;2.08;;;1.88;;
13435;SDS011;6790;49.520;8.504;2022-08-24T18:17:12;2.30;;;1.90;;
13435;SDS011;6790;49.520;8.504;2022-08-24T18:19:43;1.75;;;1.65;;
13435;SDS011;6790;49.520;8.504;2022-08-24T18:22:12;3.55;;;2.20;;
13435;SDS011;6790;49.520;8.504;2022-08-24T18:24:38;2.92;;;2.00;;
13435;SDS011;6790;49.520;8.504;2022-08-24T18:29:36;4.07;;;2.05;;
13435;SDS011;6790;49.520;8.504;2022-08-24T18:32:04;2.92;;;1.90;;
13435;SDS011;6790;49.520;8.504;2022-08-24T18:34:31;3.53;;;2.00;;
13435;SDS011;6790;49.520;8.504;2022-08-24T18:36:58;3.85;;;2.33;;
13435;SDS011;6790;49.520;8.504;2022-08-24T18:39:23;2.30;;;2.10;;
13435;SDS011;6790;49.520;8.504;2022-08-24T18:41:49;2.67;;;1.90;;
13435;SDS011;6790;49.520;8.504;2022-08-24T18:44:16;2.30;;;2.10;;
13435;SDS011;6790;49.520;8.504;2022-08-24T18:46:45;6.13;;;2.70;;
13435;SDS011;6790;49.520;8.504;2022-08-24T18:49:11;3.88;;;2.72;;
13435;SDS011;6790;49.520;8.504;2022-08-24T18:51:37;41.15;;;28.38;;
13435;SDS011;6790;49.520;8.504;2022-08-24T18:54:20;334.48;;;216.63;;
13435;SDS011;6790;49.520;8.504;2022-08-24T18:56:50;266.48;;;178.15;;
13435;SDS011;6790;49.520;8.504;2022-08-24T18:59:17;88.35;;;61.15;;
13435;SDS011;6790;49.520;8.504;2022-08-24T19:01:45;209.13;;;135.75;;
13435;SDS011;6790;49.520;8.504;2022-08-24T19:04:32;40.65;;;29.90;;
13435;SDS011;6790;49.520;8.504;2022-08-24T19:07:11;47.40;;;31.73;;
13435;SDS011;6790;49.520;8.504;2022-08-24T19:09:37;35.53;;;25.80;;
13435;SDS011;6790;49.520;8.504;2022-08-24T19:12:04;11.43;;;9.18;;
13435;SDS011;6790;49.520;8.504;2022-08-24T19:14:31;18.15;;;12.25;;
13435;SDS011;6790;49.520;8.504;2022-08-24T19:16:58;15.18;;;11.18;;